createdAt,value
2023-05-02T00:00:37.837Z,27.83
2023-05-02T00:03:06.390Z,30.60
2023-05-02T00:05:35.595Z,27.77
2023-05-02T00:08:03.511Z,30.60
2023-05-02T00:10:31.405Z,32.25
2023-05-02T00:12:59.326Z,30.98
2023-05-02T00:15:28.060Z,30.67
2023-05-02T00:17:57.408Z,33.92
2023-05-02T00:20:25.684Z,32.97
2023-05-02T00:22:53.572Z,29.08
2023-05-02T00:25:21.660Z,35.00
2023-05-02T00:27:51.180Z,28.77
2023-05-02T00:30:21.111Z,37.38
2023-05-02T00:32:49.459Z,33.00
2023-05-02T00:35:19.054Z,29.70
2023-05-02T00:37:47.088Z,33.95
2023-05-02T00:40:15.728Z,34.92
2023-05-02T00:42:43.704Z,37.95
2023-05-02T00:45:12.403Z,32.25
2023-05-02T00:47:40.470Z,31.60
2023-05-02T00:50:09.378Z,36.22
2023-05-02T00:52:39.055Z,30.77
2023-05-02T00:55:08.045Z,31.35
2023-05-02T00:57:35.993Z,32.15
2023-05-02T01:00:04.647Z,33.90
2023-05-02T01:02:37.870Z,35.67
2023-05-02T01:05:12.425Z,35.50
2023-05-02T01:07:57.561Z,35.28
2023-05-02T01:10:31.911Z,35.13
2023-05-02T01:13:01.642Z,37.55
2023-05-02T01:15:29.663Z,38.05
2023-05-02T01:17:58.623Z,39.70
2023-05-02T01:20:29.027Z,39.42
2023-05-02T01:23:01.948Z,38.33
2023-05-02T01:25:33.298Z,42.58
2023-05-02T01:28:10.325Z,43.28
2023-05-02T01:30:42.500Z,39.80
2023-05-02T01:33:13.321Z,40.97
2023-05-02T01:35:42.169Z,44.42
2023-05-02T01:38:10.418Z,39.33
2023-05-02T01:40:40.826Z,44.92
2023-05-02T01:43:09.296Z,42.08
2023-05-02T01:45:39.385Z,43.70
2023-05-02T01:48:07.917Z,45.80
2023-05-02T01:50:36.923Z,50.15
2023-05-02T01:53:05.195Z,51.13
2023-05-02T01:55:34.888Z,54.30
2023-05-02T01:58:03.287Z,44.80
2023-05-02T02:00:31.730Z,42.42
2023-05-02T02:03:01.421Z,43.42
2023-05-02T02:05:29.818Z,41.33
2023-05-02T02:07:58.594Z,42.40
2023-05-02T02:10:28.377Z,43.65
2023-05-02T02:13:01.757Z,43.88
2023-05-02T02:15:30.567Z,44.80
2023-05-02T02:18:01.607Z,40.08
2023-05-02T02:20:31.918Z,47.95
2023-05-02T02:23:02.073Z,45.70
2023-05-02T02:25:30.195Z,49.90
2023-05-02T02:27:58.192Z,51.10
2023-05-02T02:30:26.072Z,43.95
2023-05-02T02:32:54.090Z,42.60
2023-05-02T02:35:24.122Z,47.00
2023-05-02T02:37:57.853Z,43.20
2023-05-02T02:40:30.046Z,44.33
2023-05-02T02:43:08.986Z,42.72
2023-05-02T02:45:40.313Z,45.35
2023-05-02T02:48:18.258Z,42.30
2023-05-02T02:50:56.092Z,42.08
2023-05-02T02:53:27.864Z,40.47
2023-05-02T02:55:58.957Z,44.35
2023-05-02T02:58:32.994Z,47.85
2023-05-02T03:01:04.890Z,47.28
2023-05-02T03:03:33.957Z,46.45
2023-05-02T03:06:05.638Z,48.28
2023-05-02T03:08:41.178Z,49.72
2023-05-02T03:11:09.419Z,49.10
2023-05-02T03:13:37.976Z,46.97
2023-05-02T03:16:29.091Z,53.03
2023-05-02T03:18:57.219Z,54.63
2023-05-02T03:21:26.528Z,51.13
2023-05-02T03:23:54.828Z,54.55
2023-05-02T03:26:22.702Z,58.35
2023-05-02T03:28:51.504Z,58.50
2023-05-02T03:31:19.456Z,59.65
2023-05-02T03:33:47.366Z,62.17
2023-05-02T03:36:15.336Z,64.00
2023-05-02T03:38:44.651Z,60.80
2023-05-02T03:41:12.562Z,67.43
2023-05-02T03:43:40.515Z,56.25
2023-05-02T03:46:09.621Z,60.42
2023-05-02T03:48:37.567Z,62.03
2023-05-02T03:51:07.815Z,61.05
2023-05-02T03:53:35.789Z,58.60
2023-05-02T03:56:05.318Z,64.03
2023-05-02T03:58:33.642Z,69.40
2023-05-02T04:01:02.017Z,67.68
2023-05-02T04:03:30.268Z,68.57
2023-05-02T04:05:58.266Z,69.43
2023-05-02T04:08:26.240Z,69.50
2023-05-02T04:10:54.154Z,73.00
2023-05-02T04:13:23.620Z,75.07
2023-05-02T04:15:51.596Z,67.60
2023-05-02T04:18:19.455Z,56.25
2023-05-02T04:20:47.458Z,55.83
2023-05-02T04:23:15.508Z,63.10
2023-05-02T04:25:43.502Z,60.97
2023-05-02T04:28:11.379Z,65.15
2023-05-02T04:30:40.656Z,67.35
2023-05-02T04:33:08.882Z,59.35
2023-05-02T04:35:36.787Z,71.72
2023-05-02T04:38:04.601Z,66.10
2023-05-02T04:40:32.501Z,70.30
2023-05-02T04:43:00.386Z,73.70
2023-05-02T04:45:28.319Z,66.68
2023-05-02T04:47:57.789Z,59.58
2023-05-02T04:50:26.084Z,62.80
2023-05-02T04:52:54.141Z,63.15
2023-05-02T04:55:22.316Z,54.83
2023-05-02T04:57:50.586Z,54.42
2023-05-02T05:00:18.725Z,50.05
2023-05-02T05:02:46.741Z,51.30
2023-05-02T05:05:16.469Z,39.38
2023-05-02T05:07:45.501Z,43.70
2023-05-02T05:10:13.418Z,37.10
2023-05-02T05:12:41.306Z,39.92
2023-05-02T05:15:10.208Z,37.85
2023-05-02T05:17:38.117Z,31.23
2023-05-02T05:20:08.956Z,30.98
2023-05-02T05:22:41.443Z,31.92
2023-05-02T05:25:10.074Z,31.55
2023-05-02T05:27:38.640Z,27.10
2023-05-02T05:30:08.881Z,32.28
2023-05-02T05:32:37.073Z,28.73
2023-05-02T05:35:05.632Z,26.67
2023-05-02T05:37:33.709Z,25.73
2023-05-02T05:40:03.353Z,25.38
2023-05-02T05:42:31.361Z,21.58
2023-05-02T05:44:59.316Z,21.13
2023-05-02T05:47:27.399Z,19.85
2023-05-02T05:49:55.521Z,21.67
2023-05-02T05:52:23.784Z,18.10
2023-05-02T05:54:54.980Z,17.27
2023-05-02T05:57:24.354Z,16.83
2023-05-02T05:59:52.244Z,14.93
2023-05-02T06:02:20.718Z,18.13
2023-05-02T06:04:48.751Z,17.90
2023-05-02T06:07:16.814Z,19.38
2023-05-02T06:09:44.701Z,16.73
2023-05-02T06:12:12.705Z,23.92
2023-05-02T06:14:42.288Z,17.13
2023-05-02T06:17:10.303Z,17.17
2023-05-02T06:19:38.229Z,15.57
2023-05-02T06:22:06.171Z,15.18
2023-05-02T06:24:34.133Z,13.68
2023-05-02T06:27:02.489Z,15.00
2023-05-02T06:29:30.356Z,16.55
2023-05-02T06:31:59.815Z,14.20
2023-05-02T06:34:27.760Z,11.88
2023-05-02T06:36:57.163Z,12.52
2023-05-02T06:39:25.090Z,13.10
2023-05-02T06:41:53.190Z,9.55
2023-05-02T06:44:21.077Z,13.07
2023-05-02T06:46:49.078Z,12.25
2023-05-02T06:49:18.555Z,11.25
2023-05-02T06:51:46.524Z,11.13
2023-05-02T06:54:14.936Z,8.15
2023-05-02T06:56:42.933Z,11.45
2023-05-02T06:59:10.832Z,7.30
2023-05-02T07:01:38.896Z,8.10
2023-05-02T07:04:06.932Z,9.93
2023-05-02T07:06:36.454Z,9.07
2023-05-02T07:09:04.515Z,9.10
2023-05-02T07:11:32.581Z,10.00
2023-05-02T07:14:00.487Z,9.07
2023-05-02T07:16:29.342Z,12.00
2023-05-02T07:18:57.290Z,7.47
2023-05-02T07:21:25.335Z,9.30
2023-05-02T07:23:57.664Z,11.10
2023-05-02T07:26:27.553Z,12.88
2023-05-02T07:28:55.495Z,10.07
2023-05-02T07:31:23.495Z,8.95
2023-05-02T07:33:51.536Z,10.95
2023-05-02T07:36:19.585Z,12.35
2023-05-02T07:38:47.557Z,11.95
2023-05-02T07:41:17.114Z,16.73
2023-05-02T07:43:45.035Z,12.98
2023-05-02T07:46:12.998Z,13.32
2023-05-02T07:48:42.211Z,12.98
2023-05-02T07:51:11.294Z,12.88
2023-05-02T07:53:39.316Z,13.65
2023-05-02T07:56:08.617Z,13.50
2023-05-02T07:58:38.252Z,14.02
2023-05-02T08:01:06.375Z,14.00
2023-05-02T08:03:34.318Z,13.38
2023-05-02T08:06:04.024Z,13.65
2023-05-02T08:08:32.100Z,17.20
2023-05-02T08:11:00.363Z,13.98
2023-05-02T08:13:28.434Z,14.05
2023-05-02T08:15:58.614Z,17.33
2023-05-02T08:18:26.604Z,16.23
2023-05-02T08:20:54.565Z,16.05
2023-05-02T08:23:22.521Z,17.63
2023-05-02T08:25:50.550Z,14.93
2023-05-02T08:28:18.691Z,11.88
2023-05-02T08:30:46.815Z,12.57
2023-05-02T08:33:19.049Z,10.45
2023-05-02T08:35:47.192Z,12.63
2023-05-02T08:38:15.103Z,14.02
2023-05-02T08:40:43.435Z,11.20
2023-05-02T08:43:12.771Z,11.02
2023-05-02T08:45:42.265Z,12.30
2023-05-02T08:48:11.744Z,12.52
2023-05-02T08:50:43.583Z,9.60
2023-05-02T08:53:13.777Z,9.13
2023-05-02T08:55:43.036Z,10.77
2023-05-02T08:58:14.664Z,8.02
2023-05-02T09:00:44.071Z,8.00
2023-05-02T09:03:23.355Z,8.57
2023-05-02T09:05:55.241Z,9.55
2023-05-02T09:08:24.329Z,9.73
2023-05-02T09:10:52.742Z,8.73
2023-05-02T09:13:35.007Z,8.88
2023-05-02T09:16:04.812Z,11.50
2023-05-02T09:18:35.053Z,9.50
2023-05-02T09:21:08.835Z,9.70
2023-05-02T09:23:41.505Z,10.35
2023-05-02T09:26:14.103Z,11.18
2023-05-02T09:28:43.661Z,8.70
2023-05-02T09:31:12.954Z,7.40
2023-05-02T09:33:41.456Z,7.38
2023-05-02T09:36:14.517Z,8.82
2023-05-02T09:38:42.966Z,11.40
2023-05-02T09:41:11.094Z,8.82
2023-05-02T09:43:39.835Z,9.48
2023-05-02T09:46:08.725Z,10.93
2023-05-02T09:48:53.212Z,8.60
2023-05-02T09:51:23.157Z,12.13
2023-05-02T09:53:51.404Z,9.02
2023-05-02T09:56:19.883Z,8.57
2023-05-02T09:58:47.904Z,8.52
2023-05-02T10:01:16.336Z,10.82
2023-05-02T10:03:47.986Z,9.93
2023-05-02T10:06:16.677Z,11.57
2023-05-02T10:08:47.570Z,8.25
2023-05-02T10:11:15.853Z,7.60
2023-05-02T10:13:44.833Z,10.27
2023-05-02T10:16:14.490Z,6.10
2023-05-02T10:18:52.655Z,8.65
2023-05-02T10:21:27.452Z,6.65
2023-05-02T10:23:57.160Z,8.45
2023-05-02T10:26:25.164Z,8.15
2023-05-02T10:28:53.608Z,6.30
2023-05-02T10:31:21.756Z,9.32
2023-05-02T10:33:52.140Z,6.30
2023-05-02T10:36:23.060Z,6.20
2023-05-02T10:38:51.291Z,8.35
2023-05-02T10:41:23.263Z,7.00
2023-05-02T10:43:51.521Z,6.13
2023-05-02T10:46:32.116Z,6.45
2023-05-02T10:49:05.098Z,9.75
2023-05-02T10:51:34.943Z,7.75
2023-05-02T10:54:24.776Z,9.85
2023-05-02T10:57:09.635Z,10.77
2023-05-02T10:59:38.794Z,7.40
2023-05-02T11:02:07.459Z,9.30
2023-05-02T11:05:01.567Z,7.55
2023-05-02T11:07:30.253Z,7.03
2023-05-02T11:10:27.462Z,8.15
2023-05-02T11:12:57.450Z,10.73
2023-05-02T11:15:56.969Z,10.25
2023-05-02T11:18:24.930Z,7.43
2023-05-02T11:20:53.072Z,7.03
2023-05-02T11:23:25.341Z,8.65
2023-05-02T11:25:56.879Z,7.80
2023-05-02T11:28:47.892Z,9.82
2023-05-02T11:31:56.080Z,8.05
2023-05-02T11:34:24.039Z,9.93
2023-05-02T11:36:51.971Z,7.53
2023-05-02T11:39:21.040Z,9.25
2023-05-02T11:41:51.078Z,9.60
2023-05-02T11:44:20.355Z,6.78
2023-05-02T11:46:48.519Z,10.93
2023-05-02T11:49:16.611Z,8.57
2023-05-02T11:51:44.701Z,6.13
2023-05-02T11:54:20.074Z,6.30
2023-05-02T11:56:48.690Z,7.95
2023-05-02T11:59:16.664Z,10.13
2023-05-02T12:01:50.489Z,6.88
2023-05-02T12:04:22.032Z,7.50
2023-05-02T12:06:57.071Z,12.32
2023-05-02T12:09:25.182Z,7.75
2023-05-02T12:11:58.130Z,6.35
2023-05-02T12:14:29.781Z,6.38
2023-05-02T12:16:59.702Z,8.63
2023-05-02T12:19:28.127Z,6.80
2023-05-02T12:21:56.221Z,6.03
2023-05-02T12:24:24.547Z,7.70
2023-05-02T12:27:10.201Z,3.70
2023-05-02T12:29:42.115Z,7.28
2023-05-02T12:32:11.774Z,7.40
2023-05-02T12:34:40.181Z,5.30
2023-05-02T12:37:08.778Z,4.68
2023-05-02T12:39:37.541Z,5.97
2023-05-02T12:42:12.894Z,7.78
2023-05-02T12:44:42.045Z,7.45
2023-05-02T12:47:12.222Z,6.20
2023-05-02T12:49:50.564Z,5.60
2023-05-02T12:52:18.837Z,8.07
2023-05-02T12:54:47.092Z,5.75
2023-05-02T12:57:25.702Z,5.95
2023-05-02T12:59:54.580Z,5.38
2023-05-02T13:02:24.176Z,4.65
2023-05-02T13:04:52.865Z,4.18
2023-05-02T13:07:20.901Z,7.47
2023-05-02T13:09:48.796Z,6.07
2023-05-02T13:12:18.212Z,7.72
2023-05-02T13:14:46.325Z,4.75
2023-05-02T13:17:14.459Z,6.03
2023-05-02T13:19:50.429Z,7.10
2023-05-02T13:22:26.492Z,6.70
2023-05-02T13:24:54.582Z,4.78
2023-05-02T13:27:24.393Z,8.27
2023-05-02T13:29:52.674Z,8.20
2023-05-02T13:32:21.846Z,5.95
2023-05-02T13:34:51.249Z,7.70
2023-05-02T13:37:19.254Z,6.47
2023-05-02T13:39:47.186Z,4.65
2023-05-02T13:42:15.072Z,4.82
2023-05-02T13:44:43.016Z,4.00
2023-05-02T13:47:11.112Z,6.22
2023-05-02T13:49:39.031Z,4.45
2023-05-02T13:52:08.746Z,8.70
2023-05-02T13:54:36.651Z,4.25
2023-05-02T13:57:05.668Z,7.18
2023-05-02T13:59:33.617Z,6.40
2023-05-02T14:02:02.020Z,7.75
2023-05-02T14:04:30.085Z,9.18
2023-05-02T14:06:57.977Z,5.70
2023-05-02T14:09:27.335Z,6.88
2023-05-02T14:11:55.596Z,3.78
2023-05-02T14:14:23.438Z,9.48
2023-05-02T14:16:51.512Z,6.03
2023-05-02T14:19:19.418Z,3.45
2023-05-02T14:21:47.569Z,6.38
2023-05-02T14:24:16.641Z,4.85
2023-05-02T14:26:46.569Z,7.07
2023-05-02T14:29:14.500Z,4.28
2023-05-02T14:31:42.650Z,4.97
2023-05-02T14:34:10.755Z,5.15
2023-05-02T14:36:38.692Z,5.53
2023-05-02T14:39:06.774Z,7.57
2023-05-02T14:41:34.810Z,5.22
2023-05-02T14:44:04.221Z,5.28
2023-05-02T14:46:33.033Z,5.03
2023-05-02T14:49:01.069Z,3.60
2023-05-02T14:51:29.009Z,6.03
2023-05-02T14:54:03.493Z,5.93
2023-05-02T14:56:31.960Z,4.55
2023-05-02T14:58:59.940Z,4.50
2023-05-02T15:01:40.643Z,3.28
2023-05-02T15:04:09.398Z,5.97
2023-05-02T15:06:42.899Z,4.10
2023-05-02T15:09:13.486Z,4.05
2023-05-02T15:11:41.478Z,4.47
2023-05-02T15:14:09.432Z,7.03
2023-05-02T15:16:39.392Z,6.30
2023-05-02T15:19:07.419Z,4.47
2023-05-02T15:21:35.593Z,6.15
2023-05-02T15:24:03.903Z,4.95
2023-05-02T15:26:32.104Z,9.13
2023-05-02T15:29:00.225Z,8.48
2023-05-02T15:31:28.224Z,7.05
2023-05-02T15:33:57.659Z,7.05
2023-05-02T15:36:28.021Z,5.45
2023-05-02T15:38:55.983Z,6.72
2023-05-02T15:41:26.151Z,7.20
2023-05-02T15:43:54.030Z,6.68
2023-05-02T15:46:22.152Z,3.78
2023-05-02T15:48:50.549Z,5.32
2023-05-02T15:51:20.140Z,7.25
2023-05-02T15:53:52.288Z,7.65
2023-05-02T15:56:21.512Z,8.45
2023-05-02T15:58:49.489Z,8.75
2023-05-02T16:01:17.720Z,7.65
2023-05-02T16:03:45.808Z,5.35
2023-05-02T16:06:15.975Z,7.75
2023-05-02T16:08:45.333Z,5.75
2023-05-02T16:11:13.192Z,5.90
2023-05-02T16:13:41.603Z,6.43
2023-05-02T16:16:09.681Z,6.60
2023-05-02T16:18:39.970Z,5.40
2023-05-02T16:21:08.409Z,9.27
2023-05-02T16:23:36.531Z,7.47
2023-05-02T16:26:06.000Z,8.57
2023-05-02T16:28:33.970Z,5.95
2023-05-02T16:31:07.657Z,7.43
2023-05-02T16:33:35.982Z,6.55
2023-05-02T16:36:05.321Z,12.57
2023-05-02T16:38:33.702Z,5.25
2023-05-02T16:41:06.924Z,6.18
2023-05-02T16:43:35.212Z,12.73
2023-05-02T16:46:03.679Z,10.07
2023-05-02T16:48:31.666Z,6.78
2023-05-02T16:51:01.585Z,7.03
2023-05-02T16:53:30.681Z,8.40
2023-05-02T16:55:59.762Z,6.63
2023-05-02T16:58:30.504Z,6.03
2023-05-02T17:01:00.350Z,7.20
2023-05-02T17:03:28.944Z,10.55
2023-05-02T17:06:00.937Z,8.80
2023-05-02T17:08:28.986Z,10.43
2023-05-02T17:10:56.956Z,8.27
2023-05-02T17:13:24.908Z,6.38
2023-05-02T17:15:54.266Z,10.57
2023-05-02T17:18:22.239Z,8.88
2023-05-02T17:20:50.271Z,8.90
2023-05-02T17:23:18.243Z,11.60
2023-05-02T17:25:46.885Z,7.60
2023-05-02T17:28:14.892Z,7.18
2023-05-02T17:30:43.406Z,10.27
2023-05-02T17:33:12.757Z,8.93
2023-05-02T17:35:41.063Z,6.10
2023-05-02T17:38:08.949Z,10.65
2023-05-02T17:40:38.112Z,8.20
2023-05-02T17:43:06.402Z,8.27
2023-05-02T17:45:34.320Z,8.00
2023-05-02T17:48:03.778Z,6.25
2023-05-02T17:50:38.293Z,8.85
2023-05-02T17:53:06.662Z,8.35
2023-05-02T17:55:37.441Z,8.40
2023-05-02T17:58:05.421Z,8.57
2023-05-02T18:00:33.628Z,12.90
2023-05-02T18:03:02.037Z,8.88
2023-05-02T18:05:30.215Z,10.45
2023-05-02T18:07:59.466Z,9.70
2023-05-02T18:10:27.486Z,10.57
2023-05-02T18:12:55.372Z,6.35
2023-05-02T18:15:23.562Z,7.75
2023-05-02T18:17:51.634Z,9.52
2023-05-02T18:20:19.764Z,5.93
2023-05-02T18:22:47.729Z,6.75
2023-05-02T18:25:17.256Z,7.43
2023-05-02T18:27:45.248Z,7.68
2023-05-02T18:30:13.619Z,8.98
2023-05-02T18:32:41.681Z,8.35
2023-05-02T18:35:11.159Z,9.57
2023-05-02T18:37:39.075Z,8.95
2023-05-02T18:40:08.493Z,8.32
2023-05-02T18:42:37.892Z,9.07
2023-05-02T18:45:06.671Z,7.80
2023-05-02T18:47:35.072Z,10.70
2023-05-02T18:50:04.600Z,9.57
2023-05-02T18:52:32.568Z,9.63
2023-05-02T18:55:02.107Z,8.52
2023-05-02T18:57:30.247Z,8.88
2023-05-02T18:59:59.962Z,7.40
2023-05-02T19:02:28.145Z,11.70
2023-05-02T19:04:56.317Z,6.45
2023-05-02T19:07:24.255Z,6.50
2023-05-02T19:09:52.298Z,10.02
2023-05-02T19:12:20.221Z,7.68
2023-05-02T19:14:50.318Z,11.93
2023-05-02T19:17:19.694Z,7.78
2023-05-02T19:19:48.126Z,9.35
2023-05-02T19:22:16.137Z,7.95
2023-05-02T19:24:44.196Z,8.95
2023-05-02T19:27:12.451Z,9.93
2023-05-02T19:29:41.387Z,11.27
2023-05-02T19:32:09.837Z,6.85
2023-05-02T19:34:39.521Z,7.15
2023-05-02T19:37:07.773Z,8.68
2023-05-02T19:39:35.797Z,7.78
2023-05-02T19:42:04.185Z,8.90
2023-05-02T19:44:32.087Z,10.80
2023-05-02T19:46:59.953Z,9.45
2023-05-02T19:49:27.861Z,9.05
2023-05-02T19:51:57.113Z,10.45
2023-05-02T19:54:25.282Z,6.95
2023-05-02T19:56:53.221Z,5.63
2023-05-02T19:59:21.186Z,10.50
2023-05-02T20:01:49.284Z,9.73
2023-05-02T20:04:17.368Z,6.00
2023-05-02T20:06:45.351Z,8.27
2023-05-02T20:09:14.741Z,12.50
2023-05-02T20:11:42.667Z,7.60
2023-05-02T20:14:10.603Z,11.80
2023-05-02T20:16:38.667Z,10.23
2023-05-02T20:19:06.646Z,7.22
2023-05-02T20:21:34.598Z,9.52
2023-05-02T20:24:02.464Z,9.88
2023-05-02T20:26:33.809Z,6.82
2023-05-02T20:29:03.432Z,8.65
2023-05-02T20:31:31.769Z,8.75
2023-05-02T20:34:00.317Z,10.05
2023-05-02T20:36:30.849Z,10.05
2023-05-02T20:38:58.962Z,10.05
2023-05-02T20:41:26.943Z,10.15
2023-05-02T20:43:57.113Z,7.35
2023-05-02T20:46:25.082Z,6.60
2023-05-02T20:48:53.717Z,10.68
2023-05-02T20:51:22.165Z,9.25
2023-05-02T20:53:50.264Z,8.02
2023-05-02T20:56:18.104Z,10.68
2023-05-02T20:58:46.121Z,13.45
2023-05-02T21:01:15.398Z,10.35
2023-05-02T21:03:43.401Z,9.25
2023-05-02T21:06:11.465Z,29.95
2023-05-02T21:08:39.394Z,10.68
2023-05-02T21:11:13.877Z,13.18
2023-05-02T21:13:42.125Z,9.15
2023-05-02T21:16:19.144Z,11.48
2023-05-02T21:18:47.520Z,13.57
2023-05-02T21:21:15.476Z,10.60
2023-05-02T21:23:43.540Z,11.25
2023-05-02T21:26:11.556Z,14.05
2023-05-02T21:28:40.062Z,9.13
2023-05-02T21:31:08.481Z,9.02
2023-05-02T21:33:37.984Z,7.32
2023-05-02T21:36:06.088Z,10.80
2023-05-02T21:38:34.307Z,10.27
2023-05-02T21:41:02.841Z,10.98
2023-05-02T21:43:31.804Z,9.75
2023-05-02T21:45:59.680Z,11.25
2023-05-02T21:48:27.788Z,12.27
2023-05-02T21:50:57.191Z,7.55
2023-05-02T21:53:25.149Z,9.07
2023-05-02T21:55:53.808Z,8.65
2023-05-02T21:58:21.748Z,9.40
2023-05-02T22:00:49.723Z,9.00
2023-05-02T22:03:17.840Z,13.25
2023-05-02T22:05:48.374Z,12.27
2023-05-02T22:08:18.016Z,12.50
2023-05-02T22:10:46.021Z,10.57
2023-05-02T22:13:15.948Z,7.63
2023-05-02T22:15:45.568Z,9.70
2023-05-02T22:18:14.158Z,13.55
2023-05-02T22:20:42.251Z,8.27
2023-05-02T22:23:10.941Z,12.55
2023-05-02T22:25:42.499Z,13.20
2023-05-02T22:28:12.254Z,9.88
2023-05-02T22:30:40.714Z,13.43
2023-05-02T22:33:08.552Z,17.38
2023-05-02T22:35:37.862Z,11.82
2023-05-02T22:38:06.013Z,13.80
2023-05-02T22:40:34.200Z,11.95
2023-05-02T22:43:03.428Z,13.75
2023-05-02T22:45:31.302Z,11.07
2023-05-02T22:47:59.260Z,12.07
2023-05-02T22:50:28.326Z,14.38
2023-05-02T22:52:57.443Z,17.85
2023-05-02T22:55:25.493Z,12.18
2023-05-02T22:57:53.465Z,10.40
2023-05-02T23:00:23.728Z,13.18
2023-05-02T23:02:54.128Z,12.30
2023-05-02T23:05:22.287Z,10.32
2023-05-02T23:07:50.523Z,10.50
2023-05-02T23:10:18.736Z,9.70
2023-05-02T23:12:46.694Z,10.23
2023-05-02T23:15:14.656Z,12.52
2023-05-02T23:17:44.204Z,15.80
2023-05-02T23:20:12.776Z,12.75
2023-05-02T23:22:45.567Z,17.20
2023-05-02T23:25:13.984Z,9.50
2023-05-02T23:27:41.886Z,6.97
2023-05-02T23:30:10.540Z,10.65
2023-05-02T23:32:39.419Z,11.45
2023-05-02T23:35:11.160Z,6.95
2023-05-02T23:37:39.374Z,11.23
2023-05-02T23:40:09.305Z,9.20
2023-05-02T23:42:40.137Z,11.20
2023-05-02T23:45:09.255Z,10.43
2023-05-02T23:47:37.385Z,12.90
2023-05-02T23:50:05.699Z,10.52
2023-05-02T23:52:35.379Z,10.82
2023-05-02T23:55:03.347Z,7.15
2023-05-02T23:57:31.664Z,7.28
2023-05-02T23:59:59.531Z,9.07
